createdAt,value
2017-05-02T00:00:59.073Z,-1.47
2017-05-02T00:01:59.687Z,-1.46
2017-05-02T00:03:00.289Z,-1.50
2017-05-02T00:04:00.899Z,-1.47
2017-05-02T00:05:01.553Z,-1.50
2017-05-02T00:06:02.156Z,-1.41
2017-05-02T00:07:02.761Z,-1.40
2017-05-02T00:08:03.367Z,-1.41
2017-05-02T00:09:03.973Z,-1.44
2017-05-02T00:10:04.631Z,-1.44
2017-05-02T00:11:05.236Z,-1.51
2017-05-02T00:12:05.848Z,-1.44
2017-05-02T00:13:06.450Z,-1.48
2017-05-02T00:14:07.055Z,-1.43
2017-05-02T00:15:07.710Z,-1.51
2017-05-02T00:16:08.315Z,-1.47
2017-05-02T00:17:08.927Z,-1.59
2017-05-02T00:18:09.531Z,-1.59
2017-05-02T00:19:10.140Z,-1.61
2017-05-02T00:20:10.792Z,-1.65
2017-05-02T00:21:11.399Z,-1.69
2017-05-02T00:22:12.007Z,-1.65
2017-05-02T00:23:12.617Z,-1.59
2017-05-02T00:24:13.226Z,-1.59
2017-05-02T00:25:13.879Z,-1.59
2017-05-02T00:26:14.484Z,-1.58
2017-05-02T00:27:15.095Z,-1.68
2017-05-02T00:28:15.699Z,-1.59
2017-05-02T00:29:16.311Z,-1.68
2017-05-02T00:30:16.963Z,-1.66
2017-05-02T00:31:17.569Z,-1.68
2017-05-02T00:32:18.174Z,-1.65
2017-05-02T00:33:18.786Z,-1.61
2017-05-02T00:34:19.392Z,-1.66
2017-05-02T00:35:20.046Z,-1.59
2017-05-02T00:36:20.654Z,-1.59
2017-05-02T00:37:21.259Z,-1.64
2017-05-02T00:38:21.870Z,-1.65
2017-05-02T00:39:22.479Z,-1.62
2017-05-02T00:40:23.132Z,-1.59
2017-05-02T00:41:23.738Z,-1.56
2017-05-02T00:42:24.377Z,-1.56
2017-05-02T00:43:25.016Z,-1.58
2017-05-02T00:44:25.625Z,-1.54
2017-05-02T00:45:26.280Z,-1.50
2017-05-02T00:46:26.920Z,-1.58
2017-05-02T00:47:27.528Z,-1.56
2017-05-02T00:48:28.130Z,-1.56
2017-05-02T00:49:28.735Z,-1.59
2017-05-02T00:50:29.398Z,-1.61
2017-05-02T00:51:30.000Z,-1.56
2017-05-02T00:52:30.606Z,-1.58
2017-05-02T00:53:31.212Z,-1.54
2017-05-02T00:54:31.848Z,-1.59
2017-05-02T00:55:32.504Z,-1.58
2017-05-02T00:56:33.109Z,-1.54
2017-05-02T00:57:33.715Z,-1.53
2017-05-02T00:58:34.321Z,-1.56
2017-05-02T00:59:34.927Z,-1.51
2017-05-02T01:00:35.584Z,-1.54
2017-05-02T01:01:36.190Z,-1.56
2017-05-02T01:02:36.800Z,-1.50
2017-05-02T01:03:37.404Z,-1.51
2017-05-02T01:04:38.014Z,-1.48
2017-05-02T01:05:38.668Z,-1.50
2017-05-02T01:06:39.279Z,-1.43
2017-05-02T01:07:39.883Z,-1.54
2017-05-02T01:08:40.518Z,-1.48
2017-05-02T01:09:41.130Z,-1.53
2017-05-02T01:10:41.817Z,-1.54
2017-05-02T01:11:42.424Z,-1.56
2017-05-02T01:12:43.029Z,-1.65
2017-05-02T01:13:43.637Z,-1.59
2017-05-02T01:14:44.242Z,-1.62
2017-05-02T01:15:44.899Z,-1.65
2017-05-02T01:16:45.504Z,-1.66
2017-05-02T01:17:46.110Z,-1.66
2017-05-02T01:18:46.716Z,-1.59
2017-05-02T01:19:47.336Z,-1.58
2017-05-02T01:20:47.979Z,-1.69
2017-05-02T01:21:48.585Z,-1.71
2017-05-02T01:22:49.191Z,-1.71
2017-05-02T01:23:49.798Z,-1.72
2017-05-02T01:24:50.401Z,-1.80
2017-05-02T01:25:51.056Z,-1.83
2017-05-02T01:26:51.667Z,-1.82
2017-05-02T01:27:52.277Z,-1.82
2017-05-02T01:28:52.878Z,-1.86
2017-05-02T01:29:53.488Z,-1.86
2017-05-02T01:30:54.141Z,-1.83
2017-05-02T01:31:54.751Z,-1.83
2017-05-02T01:32:55.363Z,-1.79
2017-05-02T01:33:55.961Z,-1.84
2017-05-02T01:34:56.566Z,-1.87
2017-05-02T01:35:57.219Z,-1.84
2017-05-02T01:36:57.830Z,-1.89
2017-05-02T01:37:58.432Z,-1.80
2017-05-02T01:38:59.038Z,-1.84
2017-05-02T01:39:59.642Z,-1.98
2017-05-02T01:41:00.300Z,-1.89
2017-05-02T01:42:00.903Z,-1.84
2017-05-02T01:43:01.550Z,-1.84
2017-05-02T01:44:02.188Z,-1.87
2017-05-02T01:45:02.792Z,-1.95
2017-05-02T01:46:03.448Z,-1.90
2017-05-02T01:47:04.053Z,-1.84
2017-05-02T01:48:04.661Z,-1.82
2017-05-02T01:49:05.262Z,-1.90
2017-05-02T01:50:05.868Z,-1.84
2017-05-02T01:51:06.561Z,-1.92
2017-05-02T01:52:07.165Z,-1.80
2017-05-02T01:53:07.803Z,-1.89
2017-05-02T01:54:08.410Z,-1.82
2017-05-02T01:55:09.015Z,-1.95
2017-05-02T01:56:09.675Z,-1.92
2017-05-02T01:57:10.277Z,-1.80
2017-05-02T01:58:10.882Z,-1.89
2017-05-02T01:59:11.516Z,-1.90
2017-05-02T02:00:12.106Z,-1.90
2017-05-02T02:01:12.793Z,-1.82
2017-05-02T02:02:13.400Z,-1.82
2017-05-02T02:03:14.004Z,-1.80
2017-05-02T02:04:14.635Z,-1.84
2017-05-02T02:05:15.227Z,-1.87
2017-05-02T02:06:15.887Z,-1.89
2017-05-02T02:07:16.490Z,-1.89
2017-05-02T02:08:17.122Z,-1.92
2017-05-02T02:09:17.723Z,-1.87
2017-05-02T02:10:18.321Z,-1.83
2017-05-02T02:11:19.010Z,-1.79
2017-05-02T02:12:19.615Z,-1.84
2017-05-02T02:13:20.254Z,-1.86
2017-05-02T02:14:20.859Z,-1.80
2017-05-02T02:15:21.466Z,-1.84
2017-05-02T02:16:22.120Z,-1.72
2017-05-02T02:17:22.726Z,-1.84
2017-05-02T02:18:23.332Z,-1.74
2017-05-02T02:19:23.938Z,-1.82
2017-05-02T02:20:24.550Z,-1.77
2017-05-02T02:21:25.203Z,-1.84
2017-05-02T02:22:25.814Z,-1.86
2017-05-02T02:23:26.422Z,-1.76
2017-05-02T02:24:27.031Z,-1.83
2017-05-02T02:25:27.642Z,-1.84
2017-05-02T02:26:28.291Z,-1.83
2017-05-02T02:27:28.898Z,-1.84
2017-05-02T02:28:29.503Z,-1.84
2017-05-02T02:29:30.113Z,-1.84
2017-05-02T02:30:30.716Z,-1.86
2017-05-02T02:31:31.377Z,-1.83
2017-05-02T02:32:31.980Z,-1.80
2017-05-02T02:33:32.585Z,-1.79
2017-05-02T02:34:33.196Z,-1.87
2017-05-02T02:35:33.798Z,-1.98
2017-05-02T02:36:34.460Z,-1.84
2017-05-02T02:37:35.061Z,-1.95
2017-05-02T02:38:35.667Z,-1.95
2017-05-02T02:39:36.275Z,-1.89
2017-05-02T02:40:36.885Z,-1.92
2017-05-02T02:41:37.572Z,-1.83
2017-05-02T02:42:38.177Z,-1.83
2017-05-02T02:43:38.784Z,-1.94
2017-05-02T02:44:39.391Z,-1.89
2017-05-02T02:45:40.034Z,-1.84
2017-05-02T02:46:40.994Z,-1.94
2017-05-02T02:47:41.601Z,-1.94
2017-05-02T02:48:42.204Z,-1.90
2017-05-02T02:49:42.807Z,-1.90
2017-05-02T02:50:43.416Z,-1.97
2017-05-02T02:51:44.372Z,-1.87
2017-05-02T02:52:44.978Z,-1.87
2017-05-02T02:53:45.585Z,-1.98
2017-05-02T02:54:46.196Z,-1.98
2017-05-02T02:55:46.803Z,-1.92
2017-05-02T02:56:47.758Z,-2.05
2017-05-02T02:57:48.364Z,-2.05
2017-05-02T02:58:48.970Z,-2.00
2017-05-02T02:59:49.615Z,-2.04
2017-05-02T03:00:50.250Z,-1.90
2017-05-02T03:01:50.905Z,-1.95
2017-05-02T03:02:51.510Z,-1.97
2017-05-02T03:03:52.153Z,-1.95
2017-05-02T03:04:52.789Z,-1.89
2017-05-02T03:05:53.395Z,-1.95
2017-05-02T03:06:54.350Z,-1.83
2017-05-02T03:07:54.962Z,-1.80
2017-05-02T03:08:55.566Z,-1.84
2017-05-02T03:09:56.170Z,-1.83
2017-05-02T03:10:56.776Z,-1.71
2017-05-02T03:11:57.456Z,-1.86
2017-05-02T03:12:58.050Z,-1.77
2017-05-02T03:13:58.689Z,-1.76
2017-05-02T03:14:59.295Z,-1.80
2017-05-02T03:15:59.899Z,-1.72
2017-05-02T03:17:00.581Z,-1.74
2017-05-02T03:18:01.173Z,-1.84
2017-05-02T03:19:01.779Z,-1.86
2017-05-02T03:20:02.384Z,-1.86
2017-05-02T03:21:02.991Z,-1.79
2017-05-02T03:22:03.645Z,-1.97
2017-05-02T03:23:04.280Z,-1.94
2017-05-02T03:24:04.890Z,-1.87
2017-05-02T03:25:05.527Z,-1.84
2017-05-02T03:26:06.131Z,-1.84
2017-05-02T03:27:06.786Z,-1.77
2017-05-02T03:28:07.391Z,-1.76
2017-05-02T03:29:07.996Z,-1.82
2017-05-02T03:30:08.609Z,-1.77
2017-05-02T03:31:09.213Z,-1.76
2017-05-02T03:32:09.873Z,-1.79
2017-05-02T03:33:10.476Z,-1.71
2017-05-02T03:34:11.081Z,-1.83
2017-05-02T03:35:11.684Z,-1.74
2017-05-02T03:36:12.290Z,-1.83
2017-05-02T03:37:12.945Z,-1.83
2017-05-02T03:38:13.550Z,-1.83
2017-05-02T03:39:14.156Z,-1.69
2017-05-02T03:40:14.761Z,-1.69
2017-05-02T03:41:15.366Z,-1.83
2017-05-02T03:42:16.054Z,-1.82
2017-05-02T03:43:16.660Z,-1.82
2017-05-02T03:44:17.265Z,-1.72
2017-05-02T03:45:17.870Z,-1.74
2017-05-02T03:46:18.487Z,-1.69
2017-05-02T03:47:19.172Z,-1.82
2017-05-02T03:48:19.778Z,-1.77
2017-05-02T03:49:20.384Z,-1.68
2017-05-02T03:50:21.020Z,-1.87
2017-05-02T03:51:21.631Z,-1.72
2017-05-02T03:52:22.283Z,-1.74
2017-05-02T03:53:22.920Z,-1.82
2017-05-02T03:54:23.525Z,-1.74
2017-05-02T03:55:24.130Z,-1.82
2017-05-02T03:56:24.769Z,-1.82
2017-05-02T03:57:25.430Z,-1.76
2017-05-02T03:58:26.068Z,-1.82
2017-05-02T03:59:26.672Z,-1.77
2017-05-02T04:00:27.279Z,-1.84
2017-05-02T04:01:27.918Z,-1.83
2017-05-02T04:02:28.608Z,-1.84
2017-05-02T04:03:29.212Z,-1.83
2017-05-02T04:04:29.818Z,-1.76
2017-05-02T04:05:30.423Z,-1.80
2017-05-02T04:06:31.030Z,-1.74
2017-05-02T04:07:31.722Z,-1.76
2017-05-02T04:08:32.331Z,-1.71
2017-05-02T04:09:32.941Z,-1.71
2017-05-02T04:10:33.545Z,-1.72
2017-05-02T04:11:34.150Z,-1.68
2017-05-02T04:12:34.811Z,-1.68
2017-05-02T04:13:35.416Z,-1.74
2017-05-02T04:14:36.022Z,-1.74
2017-05-02T04:15:36.661Z,-1.72
2017-05-02T04:16:37.266Z,-1.69
2017-05-02T04:17:37.925Z,-1.74
2017-05-02T04:18:38.531Z,-1.68
2017-05-02T04:19:39.171Z,-1.77
2017-05-02T04:20:39.785Z,-1.76
2017-05-02T04:21:40.389Z,-1.79
2017-05-02T04:22:41.047Z,-1.76
2017-05-02T04:23:41.653Z,-1.64
2017-05-02T04:24:42.268Z,-1.72
2017-05-02T04:25:42.881Z,-1.62
2017-05-02T04:26:43.484Z,-1.65
2017-05-02T04:27:44.136Z,-1.65
2017-05-02T04:28:44.757Z,-1.66
2017-05-02T04:29:45.358Z,-1.54
2017-05-02T04:30:45.962Z,-1.68
2017-05-02T04:31:46.569Z,-1.59
2017-05-02T04:32:47.258Z,-1.64
2017-05-02T04:33:47.863Z,-1.62
2017-05-02T04:34:48.470Z,-1.58
2017-05-02T04:35:49.083Z,-1.56
2017-05-02T04:36:49.689Z,-1.51
2017-05-02T04:37:50.344Z,-1.61
2017-05-02T04:38:50.950Z,-1.53
2017-05-02T04:39:51.556Z,-1.48
2017-05-02T04:40:52.195Z,-1.46
2017-05-02T04:41:52.807Z,-1.44
2017-05-02T04:42:53.468Z,-1.40
2017-05-02T04:43:54.072Z,-1.41
2017-05-02T04:44:54.718Z,-1.33
2017-05-02T04:45:55.329Z,-1.30
2017-05-02T04:46:55.940Z,-1.27
2017-05-02T04:47:56.596Z,-1.43
2017-05-02T04:48:57.203Z,-1.30
2017-05-02T04:49:57.816Z,-1.38
2017-05-02T04:50:58.455Z,-1.29
2017-05-02T04:51:59.095Z,-1.29
2017-05-02T04:52:59.762Z,-1.33
2017-05-02T04:54:00.363Z,-1.41
2017-05-02T04:55:00.970Z,-1.30
2017-05-02T04:56:01.580Z,-1.32
2017-05-02T04:57:02.195Z,-1.32
2017-05-02T04:58:02.852Z,-1.25
2017-05-02T04:59:03.463Z,-1.30
2017-05-02T05:00:04.079Z,-1.23
2017-05-02T05:01:04.685Z,-1.29
2017-05-02T05:02:05.294Z,-1.25
2017-05-02T05:03:05.959Z,-1.23
2017-05-02T05:04:06.565Z,-1.20
2017-05-02T05:05:07.172Z,-1.12
2017-05-02T05:06:07.814Z,-1.17
2017-05-02T05:07:08.429Z,-1.07
2017-05-02T05:08:09.120Z,-1.02
2017-05-02T05:09:09.737Z,-1.07
2017-05-02T05:10:10.341Z,-1.05
2017-05-02T05:11:10.956Z,-1.02
2017-05-02T05:12:11.562Z,-1.05
2017-05-02T05:13:12.228Z,-1.05
2017-05-02T05:14:12.832Z,-1.11
2017-05-02T05:15:13.441Z,-0.93
2017-05-02T05:16:14.050Z,-1.05
2017-05-02T05:17:14.665Z,-1.02
2017-05-02T05:18:15.323Z,-1.07
2017-05-02T05:19:15.931Z,-0.91
2017-05-02T05:20:16.540Z,-0.86
2017-05-02T05:21:17.149Z,-0.93
2017-05-02T05:22:17.757Z,-0.85
2017-05-02T05:23:18.418Z,-0.68
2017-05-02T05:24:19.028Z,-0.72
2017-05-02T05:25:19.643Z,-0.57
2017-05-02T05:26:20.248Z,-0.54
2017-05-02T05:27:20.857Z,-0.57
2017-05-02T05:28:21.518Z,-0.49
2017-05-02T05:29:22.134Z,-0.38
2017-05-02T05:30:22.739Z,-0.36
2017-05-02T05:31:23.351Z,-0.36
2017-05-02T05:32:23.961Z,-0.28
2017-05-02T05:33:24.620Z,-0.25
2017-05-02T05:34:25.229Z,-0.26
2017-05-02T05:35:25.838Z,-0.23
2017-05-02T05:36:26.448Z,-0.11
2017-05-02T05:37:27.090Z,-0.20
2017-05-02T05:38:27.757Z,-0.14
2017-05-02T05:39:28.363Z,-0.13
2017-05-02T05:40:28.972Z,-0.15
2017-05-02T05:41:29.588Z,-0.14
2017-05-02T05:42:30.201Z,-0.20
2017-05-02T05:43:30.864Z,-0.20
2017-05-02T05:44:31.469Z,-0.21
2017-05-02T05:45:32.080Z,-0.15
2017-05-02T05:46:32.695Z,-0.15
2017-05-02T05:47:33.307Z,-0.08
2017-05-02T05:48:33.963Z,-0.11
2017-05-02T05:49:34.575Z,-0.02
2017-05-02T05:50:35.188Z,0.00
2017-05-02T05:51:35.828Z,0.08
2017-05-02T05:52:36.444Z,0.07
2017-05-02T05:53:37.102Z,0.16
2017-05-02T05:54:37.712Z,0.19
2017-05-02T05:55:38.321Z,0.22
2017-05-02T05:56:38.934Z,0.23
2017-05-02T05:57:39.541Z,0.23
2017-05-02T05:58:40.203Z,0.40
2017-05-02T05:59:40.812Z,0.40
2017-05-02T06:00:41.422Z,0.47
2017-05-02T06:01:42.030Z,0.50
2017-05-02T06:02:42.640Z,0.58
2017-05-02T06:03:43.298Z,0.62
2017-05-02T06:04:43.945Z,0.76
2017-05-02T06:05:44.559Z,0.70
2017-05-02T06:06:45.164Z,0.84
2017-05-02T06:07:45.773Z,0.87
2017-05-02T06:08:46.433Z,0.86
2017-05-02T06:09:47.042Z,0.87
2017-05-02T06:10:47.655Z,0.96
2017-05-02T06:11:48.269Z,0.95
2017-05-02T06:12:48.876Z,1.01
2017-05-02T06:13:49.534Z,1.12
2017-05-02T06:14:50.144Z,1.12
2017-05-02T06:15:50.788Z,1.05
2017-05-02T06:16:51.397Z,0.99
2017-05-02T06:17:52.041Z,1.10
2017-05-02T06:18:52.702Z,0.99
2017-05-02T06:19:53.315Z,1.10
2017-05-02T06:20:53.925Z,1.04
2017-05-02T06:21:54.531Z,1.05
2017-05-02T06:22:55.146Z,1.12
2017-05-02T06:23:55.841Z,1.19
2017-05-02T06:24:56.448Z,1.22
2017-05-02T06:25:57.059Z,1.37
2017-05-02T06:26:57.669Z,1.40
2017-05-02T06:27:58.279Z,1.44
2017-05-02T06:28:58.939Z,1.49
2017-05-02T06:29:59.582Z,1.48
2017-05-02T06:31:00.191Z,1.49
2017-05-02T06:32:00.801Z,1.52
2017-05-02T06:33:01.409Z,1.48
2017-05-02T06:34:02.068Z,1.55
2017-05-02T06:35:02.680Z,1.53
2017-05-02T06:36:03.289Z,1.53
2017-05-02T06:37:03.898Z,1.60
2017-05-02T06:38:04.513Z,1.60
2017-05-02T06:39:05.206Z,1.62
2017-05-02T06:40:05.815Z,1.45
2017-05-02T06:41:06.426Z,1.44
2017-05-02T06:42:07.037Z,1.41
2017-05-02T06:43:07.645Z,1.41
2017-05-02T06:44:08.304Z,1.37
2017-05-02T06:45:08.915Z,1.35
2017-05-02T06:46:09.559Z,1.35
2017-05-02T06:47:10.170Z,1.41
2017-05-02T06:48:10.780Z,1.38
2017-05-02T06:49:11.444Z,1.42
2017-05-02T06:50:12.050Z,1.42
2017-05-02T06:51:12.663Z,1.45
2017-05-02T06:52:13.272Z,1.44
2017-05-02T06:53:13.882Z,1.45
2017-05-02T06:54:14.542Z,1.52
2017-05-02T06:55:15.153Z,1.60
2017-05-02T06:56:15.764Z,1.70
2017-05-02T06:57:16.379Z,1.74
2017-05-02T06:58:16.985Z,1.76
2017-05-02T06:59:17.651Z,1.84
2017-05-02T07:00:18.263Z,2.04
2017-05-02T07:01:18.871Z,2.10
2017-05-02T07:02:19.514Z,2.11
2017-05-02T07:03:20.130Z,2.18
2017-05-02T07:04:20.787Z,2.18
2017-05-02T07:05:21.397Z,2.11
2017-05-02T07:06:22.041Z,2.08
2017-05-02T07:07:22.649Z,2.04
2017-05-02T07:08:23.264Z,2.11
2017-05-02T07:09:23.922Z,1.97
2017-05-02T07:10:24.533Z,1.97
2017-05-02T07:11:25.143Z,1.92
2017-05-02T07:12:25.753Z,1.94
2017-05-02T07:13:26.361Z,2.11
2017-05-02T07:14:27.023Z,2.10
2017-05-02T07:15:27.633Z,2.06
2017-05-02T07:16:28.243Z,2.18
2017-05-02T07:17:28.854Z,2.28
2017-05-02T07:18:29.463Z,2.32
2017-05-02T07:19:30.127Z,2.39
2017-05-02T07:20:30.742Z,2.49
2017-05-02T07:21:31.357Z,2.56
2017-05-02T07:22:31.965Z,2.68
2017-05-02T07:23:32.615Z,2.67
2017-05-02T07:24:33.275Z,2.79
2017-05-02T07:25:33.886Z,2.97
2017-05-02T07:26:34.498Z,3.04
2017-05-02T07:27:35.111Z,3.14
2017-05-02T07:28:35.720Z,3.32
2017-05-02T07:29:36.414Z,3.40
2017-05-02T07:30:37.028Z,3.51
2017-05-02T07:31:37.639Z,3.63
2017-05-02T07:32:38.290Z,3.73
2017-05-02T07:33:38.898Z,3.80
2017-05-02T07:34:39.560Z,3.73
2017-05-02T07:35:40.171Z,3.70
2017-05-02T07:36:40.786Z,3.65
2017-05-02T07:37:41.437Z,3.65
2017-05-02T07:38:42.046Z,3.68
2017-05-02T07:39:42.709Z,3.56
2017-05-02T07:40:43.319Z,3.55
2017-05-02T07:41:43.933Z,3.53
2017-05-02T07:42:44.551Z,3.41
2017-05-02T07:43:45.162Z,3.19
2017-05-02T07:44:45.824Z,3.21
2017-05-02T07:45:46.436Z,3.05
2017-05-02T07:46:47.050Z,3.05
2017-05-02T07:47:47.698Z,3.07
2017-05-02T07:48:48.309Z,3.14
2017-05-02T07:49:48.977Z,3.22
2017-05-02T07:50:49.592Z,3.23
2017-05-02T07:51:50.204Z,3.18
2017-05-02T07:52:50.812Z,3.23
2017-05-02T07:53:51.425Z,3.26
2017-05-02T07:54:52.094Z,3.10
2017-05-02T07:55:52.709Z,3.23
2017-05-02T07:56:53.356Z,3.13
2017-05-02T07:57:53.967Z,3.21
2017-05-02T07:58:54.582Z,2.97
2017-05-02T07:59:55.248Z,3.01
2017-05-02T08:00:55.899Z,2.92
2017-05-02T08:01:56.511Z,3.08
2017-05-02T08:02:57.121Z,3.16
2017-05-02T08:03:57.737Z,3.26
2017-05-02T08:04:58.400Z,3.44
2017-05-02T08:05:59.049Z,3.55
2017-05-02T08:06:59.668Z,3.63
2017-05-02T08:08:00.276Z,3.63
2017-05-02T08:09:00.918Z,3.55
2017-05-02T08:10:01.612Z,3.55
2017-05-02T08:11:02.230Z,3.41
2017-05-02T08:12:02.838Z,3.48
2017-05-02T08:13:03.453Z,3.29
2017-05-02T08:14:04.065Z,3.26
2017-05-02T08:15:04.726Z,3.13
2017-05-02T08:16:05.344Z,3.08
2017-05-02T08:17:05.955Z,3.01
2017-05-02T08:18:06.574Z,2.95
2017-05-02T08:19:07.189Z,3.10
2017-05-02T08:20:07.849Z,3.05
2017-05-02T08:21:08.468Z,3.23
2017-05-02T08:22:09.083Z,3.34
2017-05-02T08:23:09.692Z,3.48
2017-05-02T08:24:10.306Z,3.50
2017-05-02T08:25:10.965Z,3.47
2017-05-02T08:26:11.584Z,3.55
2017-05-02T08:27:12.194Z,3.41
2017-05-02T08:28:12.844Z,3.31
2017-05-02T08:29:13.452Z,3.28
2017-05-02T08:30:14.115Z,3.14
2017-05-02T08:31:14.735Z,3.19
2017-05-02T08:32:15.350Z,3.10
2017-05-02T08:33:15.962Z,3.18
2017-05-02T08:34:16.574Z,3.31
2017-05-02T08:35:17.237Z,3.40
2017-05-02T08:36:17.855Z,3.37
2017-05-02T08:37:18.464Z,3.40
2017-05-02T08:38:19.075Z,3.47
2017-05-02T08:39:19.694Z,3.68
2017-05-02T08:40:20.354Z,3.80
2017-05-02T08:41:20.966Z,4.10
2017-05-02T08:42:21.578Z,3.96
2017-05-02T08:43:22.197Z,4.06
2017-05-02T08:44:22.809Z,3.88
2017-05-02T08:45:23.472Z,3.92
2017-05-02T08:46:24.087Z,3.91
2017-05-02T08:47:24.704Z,3.87
2017-05-02T08:48:25.315Z,3.68
2017-05-02T08:49:25.929Z,3.62
2017-05-02T08:50:26.623Z,3.48
2017-05-02T08:51:27.235Z,3.56
2017-05-02T08:52:27.847Z,3.69
2017-05-02T08:53:28.467Z,3.78
2017-05-02T08:54:29.082Z,3.91
2017-05-02T08:55:29.748Z,4.14
2017-05-02T08:56:30.366Z,4.30
2017-05-02T08:57:30.974Z,4.34
2017-05-02T08:58:31.587Z,4.34
2017-05-02T08:59:32.199Z,4.20
2017-05-02T09:00:32.868Z,4.13
2017-05-02T09:01:33.521Z,4.13
2017-05-02T09:02:34.136Z,4.28
2017-05-02T09:03:34.755Z,4.30
2017-05-02T09:04:35.361Z,4.28
2017-05-02T09:05:36.022Z,4.31
2017-05-02T09:06:36.636Z,4.44
2017-05-02T09:07:37.253Z,4.60
2017-05-02T09:08:37.869Z,4.62
2017-05-02T09:09:38.479Z,4.86
2017-05-02T09:10:39.145Z,5.02
2017-05-02T09:11:39.761Z,5.23
2017-05-02T09:12:40.385Z,5.29
2017-05-02T09:13:40.993Z,5.48
2017-05-02T09:14:41.611Z,5.61
2017-05-02T09:15:42.272Z,5.75
2017-05-02T09:16:42.886Z,5.98
2017-05-02T09:17:43.498Z,6.07
2017-05-02T09:18:44.113Z,6.05
2017-05-02T09:19:44.726Z,5.97
2017-05-02T09:20:45.395Z,6.02
2017-05-02T09:21:46.011Z,5.97
2017-05-02T09:22:46.631Z,6.05
2017-05-02T09:23:47.241Z,6.11
2017-05-02T09:24:47.857Z,6.31
2017-05-02T09:25:48.520Z,6.42
2017-05-02T09:26:49.168Z,6.44
2017-05-02T09:27:49.784Z,6.42
2017-05-02T09:28:50.404Z,6.09
2017-05-02T09:29:51.016Z,5.93
2017-05-02T09:30:51.717Z,6.01
2017-05-02T09:31:52.332Z,6.08
2017-05-02T09:32:52.950Z,6.20
2017-05-02T09:33:53.561Z,6.41
2017-05-02T09:34:54.176Z,6.41
2017-05-02T09:35:54.846Z,6.39
2017-05-02T09:36:55.460Z,6.31
2017-05-02T09:37:56.074Z,6.09
2017-05-02T09:38:56.689Z,5.72
2017-05-02T09:39:57.304Z,5.35
2017-05-02T09:40:57.967Z,5.14
2017-05-02T09:41:58.588Z,5.02
2017-05-02T09:42:59.201Z,4.97
2017-05-02T09:43:59.822Z,4.97
2017-05-02T09:45:00.470Z,5.05
2017-05-02T09:46:01.383Z,5.12
2017-05-02T09:47:02.000Z,5.10
2017-05-02T09:48:02.614Z,5.02
2017-05-02T09:49:03.227Z,5.11
2017-05-02T09:50:03.842Z,5.11
2017-05-02T09:51:04.796Z,5.10
2017-05-02T09:52:05.406Z,5.08
2017-05-02T09:53:06.019Z,4.92
2017-05-02T09:54:06.636Z,5.05
2017-05-02T09:55:07.250Z,5.18
2017-05-02T09:56:07.915Z,5.23
2017-05-02T09:57:08.536Z,5.36
2017-05-02T09:58:09.155Z,5.56
2017-05-02T09:59:09.809Z,5.69
2017-05-02T10:00:10.427Z,5.76
2017-05-02T10:01:11.295Z,6.05
2017-05-02T10:02:11.907Z,6.20
2017-05-02T10:03:12.524Z,6.28
2017-05-02T10:04:13.139Z,6.46
2017-05-02T10:05:13.754Z,6.59
2017-05-02T10:06:14.451Z,6.66
2017-05-02T10:07:15.068Z,6.74
2017-05-02T10:08:15.685Z,6.66
2017-05-02T10:09:16.300Z,6.51
2017-05-02T10:10:16.922Z,6.79
2017-05-02T10:11:17.790Z,6.95
2017-05-02T10:12:18.410Z,7.13
2017-05-02T10:13:19.023Z,7.20
2017-05-02T10:14:19.636Z,7.51
2017-05-02T10:15:20.254Z,7.82
2017-05-02T10:16:20.917Z,8.03
2017-05-02T10:17:21.535Z,8.12
2017-05-02T10:18:22.151Z,8.24
2017-05-02T10:19:22.774Z,8.34
2017-05-02T10:20:23.392Z,8.41
2017-05-02T10:21:24.307Z,8.46
2017-05-02T10:22:24.925Z,8.37
2017-05-02T10:23:25.547Z,8.38
2017-05-02T10:24:26.161Z,8.44
2017-05-02T10:25:26.784Z,8.33
2017-05-02T10:26:27.400Z,8.13
2017-05-02T10:27:28.016Z,8.15
2017-05-02T10:28:28.932Z,8.24
2017-05-02T10:29:29.549Z,8.06
2017-05-02T10:30:30.166Z,8.06
2017-05-02T10:31:30.790Z,8.10
2017-05-02T10:32:31.413Z,8.13
2017-05-02T10:33:32.029Z,7.88
2017-05-02T10:34:32.643Z,7.72
2017-05-02T10:35:33.259Z,7.58
2017-05-02T10:36:33.877Z,7.45
2017-05-02T10:37:34.499Z,7.48
2017-05-02T10:38:35.177Z,7.70
2017-05-02T10:39:35.785Z,7.85
2017-05-02T10:40:36.402Z,8.08
2017-05-02T10:41:37.023Z,8.15
2017-05-02T10:42:37.639Z,8.09
2017-05-02T10:43:38.312Z,8.20
2017-05-02T10:44:38.931Z,8.06
2017-05-02T10:45:39.579Z,7.95
2017-05-02T10:46:40.201Z,7.80
2017-05-02T10:47:40.816Z,7.85
2017-05-02T10:48:41.431Z,7.82
2017-05-02T10:49:42.047Z,7.75
2017-05-02T10:50:42.665Z,7.72
2017-05-02T10:51:43.280Z,7.56
2017-05-02T10:52:43.936Z,7.43
2017-05-02T10:53:44.551Z,7.25
2017-05-02T10:54:45.166Z,7.23
2017-05-02T10:55:45.781Z,7.33
2017-05-02T10:56:46.438Z,7.29
2017-05-02T10:57:47.050Z,7.31
2017-05-02T10:58:47.665Z,7.35
2017-05-02T10:59:48.283Z,7.45
2017-05-02T11:00:48.902Z,7.50
2017-05-02T11:01:49.518Z,7.58
2017-05-02T11:02:50.133Z,7.57
2017-05-02T11:03:51.005Z,7.56
2017-05-02T11:04:51.618Z,7.48
2017-05-02T11:05:52.239Z,7.51
2017-05-02T11:06:52.853Z,7.61
2017-05-02T11:07:53.481Z,7.76
2017-05-02T11:08:54.339Z,7.94
2017-05-02T11:09:54.956Z,7.80
2017-05-02T11:10:55.573Z,7.72
2017-05-02T11:11:56.190Z,7.73
2017-05-02T11:12:56.805Z,7.50
2017-05-02T11:13:57.422Z,7.29
2017-05-02T11:14:58.037Z,7.07
2017-05-02T11:15:58.660Z,6.81
2017-05-02T11:16:59.271Z,6.72
2017-05-02T11:17:59.889Z,6.75
2017-05-02T11:19:00.811Z,6.88
2017-05-02T11:20:01.427Z,6.92
2017-05-02T11:21:02.043Z,6.88
2017-05-02T11:22:02.658Z,6.95
2017-05-02T11:23:03.272Z,6.85
2017-05-02T11:24:03.888Z,6.87
2017-05-02T11:25:04.535Z,7.02
2017-05-02T11:26:05.157Z,7.13
2017-05-02T11:27:05.775Z,7.10
2017-05-02T11:28:06.390Z,7.29
2017-05-02T11:29:07.009Z,7.42
2017-05-02T11:30:07.620Z,7.50
2017-05-02T11:31:08.269Z,7.50
2017-05-02T11:32:08.883Z,7.47
2017-05-02T11:33:09.500Z,7.35
2017-05-02T11:34:10.123Z,7.21
2017-05-02T11:35:10.739Z,7.11
2017-05-02T11:36:11.351Z,7.06
2017-05-02T11:37:11.966Z,6.88
2017-05-02T11:38:12.584Z,6.79
2017-05-02T11:39:13.201Z,6.67
2017-05-02T11:40:13.816Z,6.60
2017-05-02T11:41:14.432Z,6.44
2017-05-02T11:42:15.079Z,6.36
2017-05-02T11:43:15.694Z,6.14
2017-05-02T11:44:16.308Z,6.07
2017-05-02T11:45:16.923Z,6.20
2017-05-02T11:46:17.546Z,6.22
2017-05-02T11:47:18.160Z,6.46
2017-05-02T11:48:18.774Z,6.59
2017-05-02T11:49:19.388Z,6.74
2017-05-02T11:50:20.005Z,6.85
2017-05-02T11:51:20.620Z,7.07
2017-05-02T11:52:21.234Z,7.14
2017-05-02T11:53:21.851Z,7.14
2017-05-02T11:54:22.466Z,7.25
2017-05-02T11:55:23.080Z,7.24
2017-05-02T11:56:23.698Z,7.36
2017-05-02T11:57:24.319Z,7.45
2017-05-02T11:58:24.932Z,7.67
2017-05-02T11:59:25.547Z,7.73
2017-05-02T12:00:26.162Z,7.85
2017-05-02T12:01:26.785Z,7.67
2017-05-02T12:02:27.402Z,7.58
2017-05-02T12:03:28.016Z,7.38
2017-05-02T12:04:28.662Z,7.28
2017-05-02T12:05:29.283Z,7.11
2017-05-02T12:06:29.895Z,6.95
2017-05-02T12:07:30.511Z,6.66
2017-05-02T12:08:31.128Z,6.38
2017-05-02T12:09:31.743Z,6.05
2017-05-02T12:10:32.365Z,5.75
2017-05-02T12:11:32.975Z,5.62
2017-05-02T12:12:33.622Z,5.51
2017-05-02T12:13:34.243Z,5.68
2017-05-02T12:14:34.857Z,5.71
2017-05-02T12:15:35.473Z,5.83
2017-05-02T12:16:36.092Z,6.04
2017-05-02T12:17:36.710Z,6.16
2017-05-02T12:18:37.322Z,6.38
2017-05-02T12:19:37.938Z,6.44
2017-05-02T12:20:38.554Z,6.51
2017-05-02T12:21:39.167Z,6.57
2017-05-02T12:22:39.780Z,6.66
2017-05-02T12:23:40.431Z,6.81
2017-05-02T12:24:41.039Z,6.82
2017-05-02T12:25:41.653Z,6.72
2017-05-02T12:26:42.272Z,6.79
2017-05-02T12:27:42.887Z,6.77
2017-05-02T12:28:43.497Z,6.84
2017-05-02T12:29:44.119Z,6.93
2017-05-02T12:30:44.729Z,6.97
2017-05-02T12:31:45.348Z,7.06
2017-05-02T12:32:45.960Z,7.00
2017-05-02T12:33:46.573Z,6.99
2017-05-02T12:34:47.187Z,7.17
2017-05-02T12:35:47.801Z,7.11
2017-05-02T12:36:48.415Z,7.23
2017-05-02T12:37:49.035Z,7.23
2017-05-02T12:38:49.653Z,7.17
2017-05-02T12:39:50.262Z,7.20
2017-05-02T12:40:50.878Z,7.24
2017-05-02T12:41:51.516Z,7.25
2017-05-02T12:42:52.105Z,7.31
2017-05-02T12:43:52.717Z,7.40
2017-05-02T12:44:53.331Z,7.40
2017-05-02T12:45:53.949Z,7.50
2017-05-02T12:46:54.568Z,7.47
2017-05-02T12:47:55.180Z,7.43
2017-05-02T12:48:55.795Z,7.23
2017-05-02T12:49:56.410Z,6.99
2017-05-02T12:50:57.027Z,6.74
2017-05-02T12:51:57.641Z,6.44
2017-05-02T12:52:58.254Z,6.20
2017-05-02T12:53:58.870Z,6.16
2017-05-02T12:56:01.095Z,5.91
2017-05-02T12:57:01.711Z,5.83
2017-05-02T12:58:02.324Z,5.87
2017-05-02T12:59:02.937Z,5.69
2017-05-02T13:00:03.587Z,5.64
2017-05-02T13:01:04.202Z,5.53
2017-05-02T13:02:04.821Z,5.57
2017-05-02T13:03:05.438Z,5.64
2017-05-02T13:04:06.053Z,5.68
2017-05-02T13:05:06.666Z,5.91
2017-05-02T13:06:07.279Z,5.99
2017-05-02T13:07:07.894Z,6.14
2017-05-02T13:08:08.507Z,6.33
2017-05-02T13:09:09.124Z,6.42
2017-05-02T13:10:09.737Z,6.48
2017-05-02T13:11:10.355Z,6.57
2017-05-02T13:12:10.971Z,6.59
2017-05-02T13:13:11.583Z,6.69
2017-05-02T13:14:12.197Z,6.77
2017-05-02T13:15:12.811Z,6.75
2017-05-02T13:16:13.424Z,6.79